Terminal Aerodrome Forecast
Issued by NWS Atlanta, GA

Home | Current Version | Previous Version | Text Only | Print | Product List | Glossary On
Versions: 1 2 3 4 5 6 7 8 9 10 11 12 13 14 15 16
000
FTUS42 KFFC 120532
TAFMCN
TAF
KMCN 120532Z 1206/1306 23007KT P6SM FEW250
     FM121400 30012G20KT P6SM SCT200
     FM121700 31016G26KT P6SM FEW040
     FM122200 31012G20KT P6SM SKC
     FM130300 31010KT P6SM SKC=

USA.gov is the U.S. government's official web portal to all federal, state and local government web resources and services.